»·PEaware :: DAL954 KLAX-KSLC

DAL954 :: KLAX-KSLC

FLIGHT INFORMATION

Flight Status: Arrived
Operator:
Delta Air Lines
More flights by this operator :: More flights under this callsign
Pilot: Daniel Corbe (12704)
Aircraft: BOEING 717-200
(B712)
More flights by this aircraft type
Origin: KLAX Los Angeles Intl
United States
Destination: KSLC Salt Lake City Intl
United States
More flights between these airports :: More routes between these airports
Route: +SEBBY1 DAG J9 BERYL MLF JAMMN4
File this flight plan on PilotEdge
Remarks: Pizza is yummy
Altitude:
(Current/Filed)
330ft
Speed:
(Current/Filed)
480kts
Departed: 17-Jun-17 05:22 PM
Arrived: 17-Jun-17 07:02 PM
Distance/Time
Traveled:
512nm/1:40
Distance/Time
To Go:
Arrived

Flight Plot

Page will automatically refresh every two minutes.

Flight plan parsing failed; only flown route is shown


Map Options




Map Legend


Flown Route
Filed Route
Departure Airport
Arrival Airport
Navaid (VOR, NDB)
Fix

Horizontal Profiles

Position Reports

Time Latitude Longitude Heading Altitude Ground
Speed
17-Jun-17 16:55 33.940262 -118.407504 78 134ft 0kts
17-Jun-17 16:56 33.940262 -118.407504 78 134ft 0kts
17-Jun-17 16:57 33.940262 -118.407504 78 134ft 0kts
17-Jun-17 16:58 33.940262 -118.407504 78 134ft 0kts
17-Jun-17 16:59 33.940262 -118.407504 78 134ft 0kts
17-Jun-17 17:00 33.940262 -118.407504 78 134ft 0kts
17-Jun-17 17:01 33.940262 -118.407504 78 134ft 0kts
17-Jun-17 17:02 33.940262 -118.407504 78 134ft 0kts
17-Jun-17 17:03 33.940262 -118.407504 78 134ft 0kts
17-Jun-17 17:04 33.940262 -118.407504 78 134ft 0kts
17-Jun-17 17:05 33.940262 -118.407504 78 134ft 0kts
17-Jun-17 17:06 33.940262 -118.407504 78 134ft 0kts
17-Jun-17 17:07 33.940262 -118.407504 78 134ft 0kts
17-Jun-17 17:08 33.940262 -118.407504 78 134ft 0kts
17-Jun-17 17:09 33.940262 -118.407504 78 134ft 0kts
17-Jun-17 17:10 33.940262 -118.407504 78 134ft 0kts
17-Jun-17 17:11 33.940262 -118.407504 78 134ft 0kts
17-Jun-17 17:12 33.940262 -118.407504 78 134ft 0kts
17-Jun-17 17:13 33.940262 -118.407504 78 134ft 0kts
17-Jun-17 17:14 33.940235 -118.407830 95 134ft 2kts
17-Jun-17 17:15 33.940391 -118.408272 129 134ft 0kts
17-Jun-17 17:16 33.940391 -118.408272 128 134ft 0kts
17-Jun-17 17:17 33.940391 -118.408271 128 134ft 0kts
17-Jun-17 17:18 33.939827 -118.408071 172 134ft 0kts
17-Jun-17 17:19 33.938561 -118.407521 134 134ft 7kts
17-Jun-17 17:20 33.938504 -118.402735 82 134ft 17kts
17-Jun-17 17:21 33.939067 -118.397314 82 134ft 19kts
17-Jun-17 17:22 33.939543 -118.392693 82 134ft 23kts
17-Jun-17 17:23 33.940348 -118.384835 82 134ft 23kts
17-Jun-17 17:24 33.940678 -118.381720 84 134ft 13kts
17-Jun-17 17:25 33.939644 -118.382430 265 134ft 49kts
17-Jun-17 17:26 33.939261 -118.431406 294 893ft 206kts
17-Jun-17 17:27 33.999017 -118.446131 344 1448ft 230kts
17-Jun-17 17:28 34.028197 -118.506008 243 1858ft 228kts
17-Jun-17 17:29 33.970303 -118.532108 189 2204ft 239kts
17-Jun-17 17:30 33.897685 -118.545692 189 2809ft 283kts
17-Jun-17 17:31 33.817019 -118.538748 172 3403ft 296kts
17-Jun-17 17:32 33.734867 -118.524703 172 4073ft 301kts
17-Jun-17 17:33 33.651217 -118.510631 172 4716ft 305kts
17-Jun-17 17:34 33.571494 -118.497509 172 6470ft 284kts
17-Jun-17 17:35 33.495216 -118.473485 133 7640ft 292kts
17-Jun-17 17:36 33.498777 -118.385407 50 8828ft 295kts
17-Jun-17 17:37 33.558059 -118.316648 43 10070ft 299kts
17-Jun-17 17:38 33.618122 -118.247132 43 11442ft 302kts
17-Jun-17 17:39 33.678709 -118.176717 43 12888ft 305kts
17-Jun-17 17:40 33.740251 -118.105042 44 14349ft 309kts
17-Jun-17 17:41 33.804686 -118.035521 37 15755ft 315kts
17-Jun-17 17:42 33.875369 -117.971582 37 17060ft 319kts
17-Jun-17 17:43 33.946746 -117.906926 37 18215ft 324kts
17-Jun-17 17:44 34.019312 -117.841052 37 19214ft 329kts
17-Jun-17 17:45 34.092110 -117.772305 45 20134ft 333kts
17-Jun-17 17:46 34.154675 -117.689112 48 20928ft 337kts
17-Jun-17 17:47 34.215828 -117.606227 48 22336ft 324kts
17-Jun-17 17:48 34.274982 -117.525868 49 23821ft 314kts
17-Jun-17 17:49 34.333779 -117.445797 49 24498ft 331kts
17-Jun-17 17:50 34.396128 -117.360709 49 24987ft 343kts
17-Jun-17 17:51 34.461163 -117.271721 49 25028ft 360kts
17-Jun-17 17:52 34.528215 -117.179745 49 25069ft 367kts
17-Jun-17 17:53 34.596089 -117.086389 49 25086ft 371kts
17-Jun-17 17:54 34.664705 -116.991761 49 25064ft 373kts
17-Jun-17 17:55 34.733454 -116.896691 49 25003ft 376kts
17-Jun-17 17:56 34.802436 -116.801034 49 24948ft 377kts
17-Jun-17 17:57 34.871666 -116.704769 49 24937ft 377kts
17-Jun-17 17:58 34.940578 -116.608682 49 24946ft 377kts
17-Jun-17 17:59 35.012452 -116.515858 46 24963ft 377kts
17-Jun-17 18:00 35.087677 -116.422102 46 24000ft 390kts
17-Jun-17 18:01 35.162977 -116.327934 46 23883ft 385kts
17-Jun-17 18:02 35.238090 -116.233740 46 23566ft 385kts
17-Jun-17 18:03 35.311500 -116.141430 46 24024ft 371kts
17-Jun-17 18:04 35.382784 -116.051539 46 23940ft 375kts
17-Jun-17 18:04 35.445733 -115.971927 45 18162ft 405kts
17-Jun-17 18:05 35.523890 -115.872873 45 13526ft 397kts
17-Jun-17 18:06 35.585580 -115.794478 45 13045ft 390kts
17-Jun-17 18:07 35.660936 -115.698461 45 13040ft 390kts
17-Jun-17 18:09 35.749026 -115.585833 45 13038ft 392kts
17-Jun-17 18:10 35.824857 -115.488585 45 14105ft 397kts
17-Jun-17 18:11 35.902039 -115.389307 45 16328ft 406kts
17-Jun-17 18:12 35.981379 -115.286941 45 18466ft 417kts
17-Jun-17 18:13 36.062837 -115.181520 45 20336ft 431kts
17-Jun-17 18:13 36.133213 -115.091983 45 21786ft 440kts
17-Jun-17 18:14 36.219731 -114.982365 45 23445ft 450kts
17-Jun-17 18:15 36.307978 -114.870156 45 24833ft 459kts
17-Jun-17 18:16 36.397298 -114.755340 45 26119ft 466kts
17-Jun-17 18:17 36.487706 -114.637475 45 27228ft 474kts
17-Jun-17 18:18 36.577884 -114.519512 46 27439ft 466kts
17-Jun-17 18:19 36.667711 -114.401596 45 27017ft 473kts
17-Jun-17 18:20 36.759607 -114.283801 38 27029ft 472kts
17-Jun-17 18:21 36.869868 -114.195440 30 27036ft 473kts
17-Jun-17 18:22 36.981644 -114.108833 30 27041ft 473kts
17-Jun-17 18:23 37.093731 -114.021674 30 27068ft 473kts
17-Jun-17 18:24 37.205478 -113.934472 30 27061ft 474kts
17-Jun-17 18:25 37.317230 -113.846958 30 27068ft 474kts
17-Jun-17 18:26 37.429007 -113.759113 29 27090ft 474kts
17-Jun-17 18:27 37.541139 -113.670672 29 27130ft 474kts
17-Jun-17 18:28 37.652811 -113.582281 29 27179ft 474kts
17-Jun-17 18:29 37.764474 -113.493577 29 27223ft 474kts
17-Jun-17 18:30 37.876272 -113.404458 29 27238ft 474kts
17-Jun-17 18:31 37.987530 -113.315088 30 27241ft 474kts
17-Jun-17 18:32 38.099003 -113.225152 29 27239ft 476kts
17-Jun-17 18:33 38.210902 -113.134541 29 27240ft 476kts
17-Jun-17 18:34 38.322422 -113.043911 29 27241ft 476kts
17-Jun-17 18:35 38.440310 -112.970211 19 27236ft 472kts
17-Jun-17 18:36 38.561905 -112.905532 19 27241ft 472kts
17-Jun-17 18:37 38.683016 -112.840674 19 27253ft 472kts
17-Jun-17 18:38 38.804118 -112.775594 19 27266ft 473kts
17-Jun-17 18:39 38.925626 -112.710015 19 27277ft 473kts
17-Jun-17 18:40 39.047050 -112.644242 18 25475ft 474kts
17-Jun-17 18:41 39.167875 -112.578510 18 23477ft 454kts
17-Jun-17 18:42 39.278960 -112.517985 18 21470ft 414kts
17-Jun-17 18:43 39.385038 -112.477771 9 19470ft 386kts
17-Jun-17 18:44 39.486912 -112.444054 9 17479ft 370kts
17-Jun-17 18:45 39.582054 -112.412376 9 16961ft 328kts
17-Jun-17 18:46 39.669034 -112.383444 9 16974ft 322kts
17-Jun-17 18:47 39.755722 -112.354460 8 16980ft 322kts
17-Jun-17 18:48 39.842751 -112.325272 9 16997ft 321kts
17-Jun-17 18:49 39.929391 -112.296123 8 17006ft 322kts
17-Jun-17 18:50 40.016033 -112.266924 8 17001ft 321kts
17-Jun-17 18:51 40.102943 -112.237520 8 17012ft 322kts
17-Jun-17 18:52 40.186795 -112.197398 20 16021ft 324kts
17-Jun-17 18:53 40.266629 -112.143372 21 14153ft 322kts
17-Jun-17 18:54 40.336455 -112.093911 22 11161ft 262kts
17-Jun-17 18:55 40.396282 -112.052495 22 10537ft 219kts
17-Jun-17 18:56 40.448821 -112.018694 22 8934ft 202kts
17-Jun-17 18:57 40.496455 -111.979388 18 8048ft 199kts
17-Jun-17 18:58 40.551031 -111.971006 357 8050ft 199kts
17-Jun-17 18:59 40.601644 -111.975304 354 7499ft 161kts
17-Jun-17 19:00 40.646033 -111.980431 354 6718ft 158kts
17-Jun-17 19:01 40.689639 -111.985491 354 5900ft 156kts
17-Jun-17 19:02 40.733870 -111.990633 354 5058ft 160kts
17-Jun-17 19:03 40.777883 -111.995728 354 4242ft 153kts
17-Jun-17 19:04 40.799739 -111.998300 355 4235ft 22kts
17-Jun-17 19:05 40.801308 -111.998093 21 4235ft 0kts
17-Jun-17 19:06 40.801309 -111.998093 21 4235ft 0kts

Navigation Log

Ident Type
Flight plan parsing failed, navigation log unavailable